createdAt,value
2023-05-26T00:02:26.364Z,8.94
2023-05-26T00:04:59.591Z,8.92
2023-05-26T00:07:34.114Z,8.91
2023-05-26T00:10:04.995Z,8.98
2023-05-26T00:12:34.755Z,8.95
2023-05-26T00:15:04.433Z,8.93
2023-05-26T00:17:34.076Z,8.96
2023-05-26T00:20:05.612Z,8.90
2023-05-26T00:22:38.810Z,8.88
2023-05-26T00:25:09.685Z,8.86
2023-05-26T00:27:39.326Z,8.79
2023-05-26T00:30:11.772Z,8.75
2023-05-26T00:32:41.778Z,8.72
2023-05-26T00:35:12.579Z,8.68
2023-05-26T00:37:44.788Z,8.68
2023-05-26T00:40:15.905Z,8.62
2023-05-26T00:42:45.816Z,8.63
2023-05-26T00:45:15.697Z,8.66
2023-05-26T00:47:45.568Z,8.69
2023-05-26T00:50:18.523Z,8.72
2023-05-26T00:52:51.201Z,8.79
2023-05-26T00:55:22.663Z,8.81
2023-05-26T00:57:52.765Z,8.83
2023-05-26T01:00:24.030Z,8.90
2023-05-26T01:03:00.578Z,8.94
2023-05-26T01:05:30.401Z,9.00
2023-05-26T01:08:03.857Z,9.07
2023-05-26T01:10:34.141Z,9.14
2023-05-26T01:13:08.872Z,9.21
2023-05-26T01:15:44.804Z,9.27
2023-05-26T01:18:18.370Z,9.33
2023-05-26T01:20:55.263Z,9.38
2023-05-26T01:24:02.922Z,9.45
2023-05-26T01:26:41.308Z,9.50
2023-05-26T01:29:16.365Z,9.58
2023-05-26T01:31:48.341Z,9.71
2023-05-26T01:34:18.022Z,9.79
2023-05-26T01:36:47.639Z,9.88
2023-05-26T01:39:17.736Z,9.94
2023-05-26T01:41:52.611Z,10.01
2023-05-26T01:44:30.584Z,10.07
2023-05-26T01:47:01.601Z,10.15
2023-05-26T01:49:36.771Z,10.18
2023-05-26T01:52:09.453Z,10.24
2023-05-26T01:54:46.783Z,10.28
2023-05-26T01:57:18.527Z,10.35
2023-05-26T01:59:55.761Z,10.38
2023-05-26T02:02:25.533Z,10.38
2023-05-26T02:04:57.247Z,10.38
2023-05-26T02:07:26.856Z,10.40
2023-05-26T02:09:57.733Z,10.39
2023-05-26T02:12:27.408Z,10.40
2023-05-26T02:15:01.821Z,10.39
2023-05-26T02:17:32.776Z,10.41
2023-05-26T02:20:04.622Z,10.43
2023-05-26T02:22:34.857Z,10.44
2023-05-26T02:25:04.547Z,10.45
2023-05-26T02:27:34.194Z,10.45
2023-05-26T02:30:09.098Z,10.45
2023-05-26T02:32:39.230Z,10.44
2023-05-26T02:35:10.752Z,10.46
2023-05-26T02:37:43.414Z,10.48
2023-05-26T02:40:13.936Z,10.47
2023-05-26T02:42:43.600Z,10.48
2023-05-26T02:45:16.080Z,10.49
2023-05-26T02:47:45.775Z,10.50
2023-05-26T02:50:19.722Z,10.51
2023-05-26T02:52:49.315Z,10.53
2023-05-26T02:55:19.774Z,10.58
2023-05-26T02:57:49.465Z,10.60
2023-05-26T03:00:23.830Z,10.62
2023-05-26T03:02:53.525Z,10.66
2023-05-26T03:05:23.239Z,10.68
2023-05-26T03:07:52.883Z,10.70
2023-05-26T03:10:22.671Z,10.76
2023-05-26T03:12:52.306Z,10.78
2023-05-26T03:15:24.520Z,10.82
2023-05-26T03:17:54.283Z,10.85
2023-05-26T03:20:25.074Z,10.88
2023-05-26T03:22:56.729Z,10.91
2023-05-26T03:25:26.646Z,10.94
2023-05-26T03:27:56.746Z,10.98
2023-05-26T03:30:29.574Z,11.02
2023-05-26T03:33:02.081Z,11.08
2023-05-26T03:35:32.779Z,11.11
2023-05-26T03:38:02.623Z,11.16
2023-05-26T03:40:32.213Z,11.25
2023-05-26T03:43:02.946Z,11.31
2023-05-26T03:45:35.291Z,11.40
2023-05-26T03:48:05.761Z,11.53
2023-05-26T03:50:35.466Z,11.63
2023-05-26T03:53:05.276Z,11.74
2023-05-26T03:55:37.784Z,11.82
2023-05-26T03:58:07.986Z,11.93
2023-05-26T04:00:40.282Z,12.08
2023-05-26T04:03:10.031Z,12.25
2023-05-26T04:05:39.834Z,12.35
2023-05-26T04:08:09.607Z,12.42
2023-05-26T04:10:39.717Z,12.50
2023-05-26T04:13:09.384Z,12.62
2023-05-26T04:15:41.679Z,12.64
2023-05-26T04:18:11.621Z,12.81
2023-05-26T04:20:44.775Z,13.54
2023-05-26T04:23:14.579Z,14.31
2023-05-26T04:25:44.833Z,14.76
2023-05-26T04:28:15.414Z,15.46
2023-05-26T04:30:47.724Z,16.16
2023-05-26T04:33:17.672Z,17.25
2023-05-26T04:35:49.692Z,17.80
2023-05-26T04:38:21.742Z,18.97
2023-05-26T04:40:51.581Z,19.81
2023-05-26T04:43:28.931Z,20.37
2023-05-26T04:46:03.911Z,20.44
2023-05-26T04:48:35.538Z,19.59
2023-05-26T04:51:05.159Z,20.91
2023-05-26T04:53:35.733Z,22.23
2023-05-26T04:56:06.907Z,21.51
2023-05-26T04:58:39.517Z,21.24
2023-05-26T05:01:12.794Z,21.69
2023-05-26T05:03:44.529Z,21.43
2023-05-26T05:06:16.112Z,21.28
2023-05-26T05:08:45.913Z,22.35
2023-05-26T05:11:15.954Z,22.24
2023-05-26T05:13:45.583Z,20.53
2023-05-26T05:16:17.993Z,18.90
2023-05-26T05:18:47.720Z,18.46
2023-05-26T05:21:17.554Z,18.98
2023-05-26T05:23:47.850Z,20.06
2023-05-26T05:26:19.380Z,19.78
2023-05-26T05:28:49.016Z,21.67
2023-05-26T05:31:31.226Z,22.16
2023-05-26T05:34:00.824Z,22.53
2023-05-26T05:36:31.748Z,23.07
2023-05-26T05:39:01.785Z,22.95
2023-05-26T05:41:31.484Z,23.86
2023-05-26T05:44:01.897Z,23.53
2023-05-26T05:46:34.806Z,22.99
2023-05-26T05:49:05.644Z,23.31
2023-05-26T05:51:35.248Z,23.58
2023-05-26T05:54:05.883Z,23.14
2023-05-26T05:56:35.656Z,22.34
2023-05-26T05:59:05.436Z,22.33
2023-05-26T06:01:38.028Z,22.24
2023-05-26T06:04:07.837Z,22.63
2023-05-26T06:06:39.453Z,22.84
2023-05-26T06:09:09.204Z,23.28
2023-05-26T06:11:39.725Z,22.15
2023-05-26T06:14:11.342Z,20.61
2023-05-26T06:16:52.792Z,20.35
2023-05-26T06:19:22.512Z,19.88
2023-05-26T06:21:53.177Z,21.25
2023-05-26T06:24:22.756Z,21.19
2023-05-26T06:26:52.417Z,20.46
2023-05-26T06:29:22.119Z,20.41
2023-05-26T06:31:55.838Z,19.81
2023-05-26T06:34:26.738Z,20.86
2023-05-26T06:36:58.778Z,21.09
2023-05-26T06:39:29.191Z,22.71
2023-05-26T06:41:58.781Z,22.97
2023-05-26T06:44:29.757Z,24.13
2023-05-26T06:47:02.771Z,22.40
2023-05-26T06:49:35.112Z,22.54
2023-05-26T06:52:06.745Z,22.69
2023-05-26T06:54:36.379Z,24.02
2023-05-26T06:57:06.673Z,22.75
2023-05-26T06:59:36.280Z,24.28
2023-05-26T07:02:08.592Z,23.89
2023-05-26T07:04:38.327Z,23.69
2023-05-26T07:07:08.149Z,23.97
2023-05-26T07:09:38.774Z,21.91
2023-05-26T07:12:10.377Z,21.76
2023-05-26T07:14:39.997Z,20.54
2023-05-26T07:17:13.141Z,20.06
2023-05-26T07:19:43.718Z,19.73
2023-05-26T07:22:13.322Z,20.59
2023-05-26T07:24:42.955Z,20.08
2023-05-26T07:27:14.793Z,21.25
2023-05-26T07:29:46.130Z,21.94
2023-05-26T07:32:18.828Z,22.49
2023-05-26T07:34:48.558Z,22.17
2023-05-26T07:37:18.753Z,22.48
2023-05-26T07:39:48.437Z,21.79
2023-05-26T07:42:18.113Z,21.11
2023-05-26T07:44:47.810Z,21.16
2023-05-26T07:47:20.085Z,23.07
2023-05-26T07:49:50.856Z,24.09
2023-05-26T07:52:20.551Z,23.03
2023-05-26T07:54:50.145Z,22.98
2023-05-26T07:57:29.497Z,23.52
2023-05-26T08:00:01.273Z,25.16
2023-05-26T08:02:33.976Z,24.54
2023-05-26T08:05:04.287Z,25.85
2023-05-26T08:07:33.938Z,26.40
2023-05-26T08:10:03.591Z,26.72
2023-05-26T08:12:35.734Z,25.86
2023-05-26T08:15:07.752Z,26.20
2023-05-26T08:17:42.018Z,26.00
2023-05-26T08:20:12.778Z,24.18
2023-05-26T08:22:42.747Z,21.78
2023-05-26T08:25:15.757Z,23.29
2023-05-26T08:27:45.526Z,24.61
2023-05-26T08:30:15.761Z,21.81
2023-05-26T08:32:48.811Z,22.32
2023-05-26T08:35:18.643Z,23.26
2023-05-26T08:37:48.218Z,23.72
2023-05-26T08:40:18.653Z,24.56
2023-05-26T08:42:53.470Z,23.38
2023-05-26T08:45:23.783Z,25.12
2023-05-26T08:47:59.160Z,24.78
2023-05-26T08:50:29.740Z,24.75
2023-05-26T08:55:51.811Z,24.77
2023-05-26T08:58:24.039Z,25.34
2023-05-26T09:00:53.870Z,24.28
2023-05-26T09:03:26.335Z,24.72
2023-05-26T09:05:57.567Z,24.80
2023-05-26T09:08:27.953Z,23.75
2023-05-26T09:10:58.774Z,23.47
2023-05-26T09:13:29.859Z,23.61
2023-05-26T09:16:10.009Z,22.61
2023-05-26T09:18:49.574Z,24.62
2023-05-26T09:21:19.940Z,25.16
2023-05-26T09:23:58.204Z,25.95
2023-05-26T09:26:32.740Z,26.47
2023-05-26T09:29:03.085Z,27.22
2023-05-26T09:31:43.834Z,25.54
2023-05-26T09:34:18.604Z,25.80
2023-05-26T09:36:48.329Z,27.05
2023-05-26T09:39:18.058Z,24.23
2023-05-26T09:41:49.365Z,23.76
2023-05-26T09:44:20.950Z,25.37
2023-05-26T09:46:54.004Z,26.36
2023-05-26T09:49:26.541Z,26.83
2023-05-26T09:52:10.412Z,25.77
2023-05-26T09:54:43.437Z,24.33
2023-05-26T09:57:15.898Z,25.24
2023-05-26T09:59:52.098Z,24.92
2023-05-26T10:02:23.723Z,25.08
2023-05-26T10:04:57.798Z,25.57
2023-05-26T10:07:28.449Z,25.41
2023-05-26T10:10:02.809Z,25.18
2023-05-26T10:12:34.600Z,26.53
2023-05-26T10:15:06.766Z,26.64
2023-05-26T10:17:37.758Z,25.03
2023-05-26T10:20:15.257Z,26.08
2023-05-26T10:22:52.910Z,25.56
2023-05-26T10:25:27.939Z,25.41
2023-05-26T10:28:05.781Z,25.39
2023-05-26T10:30:36.710Z,26.09
2023-05-26T10:33:12.780Z,24.70
2023-05-26T10:36:00.820Z,25.53
2023-05-26T10:38:32.890Z,27.37
2023-05-26T10:41:02.566Z,27.86
2023-05-26T10:43:33.774Z,28.46
2023-05-26T10:46:07.690Z,26.12
2023-05-26T10:48:40.796Z,26.10
2023-05-26T10:51:22.427Z,26.92
2023-05-26T10:53:52.450Z,26.60
2023-05-26T10:56:26.792Z,26.95
2023-05-26T10:59:01.780Z,27.67
2023-05-26T11:01:33.149Z,24.42
2023-05-26T11:04:11.568Z,23.98
2023-05-26T11:06:51.854Z,22.11
2023-05-26T11:09:30.811Z,22.29
2023-05-26T11:12:02.237Z,21.06
2023-05-26T11:14:34.440Z,21.41
2023-05-26T11:17:05.917Z,20.64
2023-05-26T11:19:36.991Z,20.53
2023-05-26T11:24:42.762Z,21.22
2023-05-26T11:27:17.334Z,22.39
2023-05-26T11:29:50.672Z,23.59
2023-05-26T11:32:20.397Z,24.32
2023-05-26T11:34:50.071Z,25.58
2023-05-26T11:37:25.172Z,25.64
2023-05-26T11:39:55.778Z,25.97
2023-05-26T11:42:25.444Z,25.85
2023-05-26T11:44:55.213Z,26.64
2023-05-26T11:47:25.703Z,26.07
2023-05-26T11:49:55.404Z,25.94
2023-05-26T11:52:27.598Z,26.37
2023-05-26T11:54:58.572Z,23.98
2023-05-26T11:57:32.431Z,23.40
2023-05-26T12:00:10.501Z,22.03
2023-05-26T12:02:40.905Z,22.31
2023-05-26T12:05:21.171Z,22.26
2023-05-26T12:08:10.840Z,21.81
2023-05-26T12:10:44.777Z,21.79
2023-05-26T12:13:14.502Z,22.16
2023-05-26T12:15:53.702Z,22.16
2023-05-26T12:18:26.110Z,21.71
2023-05-26T12:20:56.168Z,20.77
2023-05-26T12:23:32.512Z,20.79
2023-05-26T12:26:02.148Z,20.91
2023-05-26T12:28:32.052Z,20.93
2023-05-26T12:31:01.696Z,21.66
2023-05-26T12:33:31.664Z,19.69
2023-05-26T12:36:01.663Z,20.08
2023-05-26T12:38:43.595Z,20.19
2023-05-26T12:41:13.528Z,20.53
2023-05-26T12:43:43.829Z,20.82
2023-05-26T12:46:14.831Z,20.28
2023-05-26T12:48:44.880Z,20.28
2023-05-26T12:51:17.554Z,19.76
2023-05-26T12:53:52.438Z,19.19
2023-05-26T12:56:22.344Z,19.73
2023-05-26T12:58:52.014Z,20.09
2023-05-26T13:01:21.999Z,19.85
2023-05-26T13:06:27.823Z,20.38
2023-05-26T13:09:00.137Z,20.56
2023-05-26T13:11:29.790Z,21.06
2023-05-26T13:13:59.537Z,21.34
2023-05-26T13:16:29.201Z,20.68
2023-05-26T13:18:58.876Z,20.93
2023-05-26T13:21:31.771Z,21.36
2023-05-26T13:24:04.776Z,21.71
2023-05-26T13:26:34.736Z,21.36
2023-05-26T13:29:04.672Z,21.59
2023-05-26T13:31:35.797Z,21.50
2023-05-26T13:34:05.454Z,20.95
2023-05-26T13:36:37.124Z,21.37
2023-05-26T13:39:09.605Z,21.73
2023-05-26T13:41:39.762Z,20.91
2023-05-26T13:44:09.360Z,21.14
2023-05-26T13:46:39.760Z,20.83
2023-05-26T13:49:10.248Z,20.10
2023-05-26T13:51:39.893Z,20.29
2023-05-26T13:54:12.074Z,20.85
2023-05-26T13:56:42.777Z,20.57
2023-05-26T13:59:12.437Z,21.08
2023-05-26T14:01:42.770Z,21.13
2023-05-26T14:04:13.153Z,21.05
2023-05-26T14:06:42.924Z,20.61
2023-05-26T14:09:15.178Z,19.93
2023-05-26T14:11:44.853Z,19.99
2023-05-26T14:14:14.505Z,20.40
2023-05-26T14:16:44.262Z,20.74
2023-05-26T14:19:18.911Z,20.26
2023-05-26T14:22:09.181Z,20.40
2023-05-26T14:24:44.893Z,20.75
2023-05-26T14:27:14.902Z,20.80
2023-05-26T14:29:44.533Z,21.04
2023-05-26T14:32:16.162Z,20.57
2023-05-26T14:34:46.292Z,20.27
2023-05-26T14:37:16.769Z,20.56
2023-05-26T14:39:49.068Z,20.34
2023-05-26T14:42:18.755Z,20.97
2023-05-26T14:44:49.640Z,20.94
2023-05-26T14:47:19.977Z,20.79
2023-05-26T14:49:50.787Z,20.94
2023-05-26T14:52:20.415Z,21.16
2023-05-26T14:54:52.661Z,20.97
2023-05-26T14:57:22.929Z,20.96
2023-05-26T14:59:52.640Z,20.99
2023-05-26T15:02:23.416Z,20.91
2023-05-26T15:04:53.160Z,20.81
2023-05-26T15:07:23.092Z,20.90
2023-05-26T15:09:55.382Z,20.65
2023-05-26T15:12:25.301Z,20.68
2023-05-26T15:14:54.930Z,19.98
2023-05-26T15:17:24.824Z,20.15
2023-05-26T15:19:54.457Z,20.25
2023-05-26T15:22:24.110Z,19.95
2023-05-26T15:24:56.418Z,19.59
2023-05-26T15:27:27.909Z,19.49
2023-05-26T15:29:57.546Z,19.33
2023-05-26T15:32:27.912Z,19.47
2023-05-26T15:34:57.642Z,19.41
2023-05-26T15:37:29.207Z,19.68
2023-05-26T15:40:02.983Z,19.92
2023-05-26T15:42:32.971Z,19.93
2023-05-26T15:45:07.770Z,20.08
2023-05-26T15:47:37.814Z,19.78
2023-05-26T15:50:08.775Z,20.13
2023-05-26T15:52:39.767Z,20.13
2023-05-26T15:55:15.203Z,19.83
2023-05-26T15:57:45.145Z,19.48
2023-05-26T16:00:17.790Z,19.77
2023-05-26T16:02:47.517Z,19.58
2023-05-26T16:05:17.127Z,19.74
2023-05-26T16:07:46.883Z,19.84
2023-05-26T16:10:19.359Z,20.01
2023-05-26T16:12:48.970Z,19.93
2023-05-26T16:15:20.996Z,19.99
2023-05-26T16:17:52.501Z,19.98
2023-05-26T16:20:22.248Z,19.82
2023-05-26T16:22:52.102Z,19.72
2023-05-26T16:25:24.629Z,19.64
2023-05-26T16:27:54.520Z,19.67
2023-05-26T16:30:24.249Z,19.68
2023-05-26T16:32:53.931Z,19.67
2023-05-26T16:35:23.805Z,19.60
2023-05-26T16:37:53.566Z,19.60
2023-05-26T16:40:27.964Z,19.42
2023-05-26T16:42:57.610Z,19.25
2023-05-26T16:45:27.807Z,19.31
2023-05-26T16:47:58.589Z,19.21
2023-05-26T16:50:29.203Z,19.29
2023-05-26T16:52:58.881Z,19.33
2023-05-26T16:55:33.642Z,19.14
2023-05-26T16:58:04.782Z,19.15
2023-05-26T17:00:34.454Z,19.18
2023-05-26T17:03:04.172Z,19.15
2023-05-26T17:05:33.900Z,19.07
2023-05-26T17:08:03.790Z,19.04
2023-05-26T17:10:36.824Z,18.97
2023-05-26T17:13:06.433Z,18.90
2023-05-26T17:15:36.077Z,18.83
2023-05-26T17:18:05.927Z,18.79
2023-05-26T17:20:38.817Z,18.76
2023-05-26T17:23:10.037Z,18.78
2023-05-26T17:25:45.987Z,18.67
2023-05-26T17:28:16.815Z,18.58
2023-05-26T17:30:46.562Z,18.47
2023-05-26T17:33:18.663Z,18.46
2023-05-26T17:35:48.323Z,18.38
2023-05-26T17:38:18.312Z,18.31
2023-05-26T17:40:51.987Z,18.25
2023-05-26T17:43:21.728Z,18.17
2023-05-26T17:45:51.437Z,18.09
2023-05-26T17:48:21.059Z,18.01
2023-05-26T17:50:51.765Z,17.91
2023-05-26T17:53:22.140Z,17.87
2023-05-26T17:55:57.778Z,17.77
2023-05-26T17:58:27.421Z,17.68
2023-05-26T18:00:58.277Z,17.57
2023-05-26T18:03:28.476Z,17.46
2023-05-26T18:05:58.227Z,17.39
2023-05-26T18:08:30.524Z,17.30
2023-05-26T18:11:06.418Z,17.19
2023-05-26T18:13:37.775Z,17.12
2023-05-26T18:16:07.847Z,16.99
2023-05-26T18:18:37.584Z,16.89
2023-05-26T18:21:09.397Z,16.77
2023-05-26T18:23:38.996Z,16.67
2023-05-26T18:26:11.356Z,16.62
2023-05-26T18:28:40.999Z,16.53
2023-05-26T18:31:12.316Z,16.46
2023-05-26T18:33:42.784Z,16.37
2023-05-26T18:36:12.446Z,16.20
2023-05-26T18:38:42.774Z,16.07
2023-05-26T18:41:15.747Z,15.96
2023-05-26T18:43:45.429Z,15.84
2023-05-26T18:46:15.154Z,15.76
2023-05-26T18:48:44.856Z,15.71
2023-05-26T18:51:15.880Z,15.58
2023-05-26T18:53:45.532Z,15.45
2023-05-26T18:56:17.746Z,15.38
2023-05-26T18:58:47.585Z,15.26
2023-05-26T19:01:17.810Z,15.13
2023-05-26T19:03:50.896Z,15.08
2023-05-26T19:06:22.976Z,14.97
2023-05-26T19:08:52.757Z,14.85
2023-05-26T19:11:27.792Z,14.73
2023-05-26T19:13:57.404Z,14.65
2023-05-26T19:16:27.888Z,14.64
2023-05-26T19:18:58.187Z,14.54
2023-05-26T19:21:33.748Z,14.44
2023-05-26T19:24:05.283Z,14.35
2023-05-26T19:26:41.766Z,14.28
2023-05-26T19:29:12.427Z,14.12
2023-05-26T19:31:42.176Z,13.97
2023-05-26T19:34:13.146Z,13.85
2023-05-26T19:36:43.478Z,13.76
2023-05-26T19:39:15.373Z,13.64
2023-05-26T19:41:49.763Z,13.62
2023-05-26T19:44:20.609Z,13.51
2023-05-26T19:46:52.804Z,13.40
2023-05-26T19:49:22.581Z,13.36
2023-05-26T19:51:52.291Z,13.25
2023-05-26T19:54:21.936Z,13.14
2023-05-26T19:56:54.993Z,13.07
2023-05-26T19:59:24.770Z,13.00
2023-05-26T20:01:54.505Z,12.89
2023-05-26T20:04:25.949Z,12.80
2023-05-26T20:06:56.839Z,12.75
2023-05-26T20:09:26.533Z,12.64
2023-05-26T20:11:58.728Z,12.59
2023-05-26T20:14:28.787Z,12.51
2023-05-26T20:16:58.837Z,12.50
2023-05-26T20:19:28.736Z,12.41
2023-05-26T20:21:58.437Z,12.32
2023-05-26T20:24:28.346Z,12.32
2023-05-26T20:27:00.543Z,12.18
2023-05-26T20:29:30.457Z,12.10
2023-05-26T20:32:02.476Z,12.04
2023-05-26T20:34:32.786Z,12.00
2023-05-26T20:37:02.430Z,11.99
2023-05-26T20:39:32.745Z,12.01
2023-05-26T20:42:05.262Z,11.97
2023-05-26T20:44:35.742Z,11.88
2023-05-26T20:47:06.797Z,11.84
2023-05-26T20:49:36.418Z,11.78
2023-05-26T20:52:06.389Z,11.67
2023-05-26T20:54:36.123Z,11.62
2023-05-26T20:57:09.870Z,11.58
2023-05-26T20:59:42.754Z,11.50
2023-05-26T21:02:13.017Z,11.48
2023-05-26T21:04:42.814Z,11.41
2023-05-26T21:07:12.773Z,11.33
2023-05-26T21:09:42.425Z,11.28
2023-05-26T21:12:15.842Z,11.18
2023-05-26T21:14:46.683Z,11.14
2023-05-26T21:17:16.661Z,11.08
2023-05-26T21:19:48.157Z,11.08
2023-05-26T21:22:17.905Z,11.14
2023-05-26T21:24:47.777Z,11.27
2023-05-26T21:27:20.056Z,11.27
2023-05-26T21:29:52.798Z,11.20
2023-05-26T21:32:22.527Z,11.27
2023-05-26T21:34:52.742Z,11.17
2023-05-26T21:37:22.530Z,11.08
2023-05-26T21:39:52.359Z,11.01
2023-05-26T21:42:24.772Z,10.95
2023-05-26T21:44:54.737Z,10.87
2023-05-26T21:47:25.129Z,10.78
2023-05-26T21:49:54.752Z,10.77
2023-05-26T21:52:24.980Z,10.77
2023-05-26T21:54:55.777Z,10.71
2023-05-26T21:57:28.032Z,10.71
2023-05-26T21:59:58.751Z,10.72
2023-05-26T22:02:29.790Z,10.63
2023-05-26T22:04:59.512Z,10.57
2023-05-26T22:07:29.119Z,10.47
2023-05-26T22:09:59.751Z,10.38
2023-05-26T22:12:32.149Z,10.37
2023-05-26T22:15:02.745Z,10.31
2023-05-26T22:17:32.457Z,10.26
2023-05-26T22:20:02.796Z,10.25
2023-05-26T22:22:32.521Z,10.22
2023-05-26T22:25:02.184Z,10.24
2023-05-26T22:27:34.403Z,10.15
2023-05-26T22:30:04.265Z,10.14
2023-05-26T22:32:34.077Z,10.28
2023-05-26T22:35:04.813Z,10.16
2023-05-26T22:37:34.409Z,10.09
2023-05-26T22:40:04.588Z,10.14
2023-05-26T22:42:36.839Z,10.07
2023-05-26T22:45:07.774Z,10.07
2023-05-26T22:47:37.382Z,10.01
2023-05-26T22:50:10.719Z,9.95
2023-05-26T22:52:40.686Z,9.85
2023-05-26T22:55:11.376Z,9.88
2023-05-26T22:57:43.938Z,9.80
2023-05-26T23:00:14.990Z,9.85
2023-05-26T23:02:44.897Z,9.87
2023-05-26T23:05:14.582Z,9.75
2023-05-26T23:07:44.489Z,9.61
2023-05-26T23:10:14.323Z,9.48
2023-05-26T23:12:46.739Z,9.36
2023-05-26T23:15:16.946Z,9.42
2023-05-26T23:17:47.891Z,9.29
2023-05-26T23:20:17.896Z,9.23
2023-05-26T23:22:47.767Z,9.12
2023-05-26T23:25:18.379Z,9.05
2023-05-26T23:27:51.756Z,8.91
2023-05-26T23:30:21.818Z,8.81
2023-05-26T23:32:51.537Z,8.69
2023-05-26T23:35:21.168Z,8.61
2023-05-26T23:37:52.753Z,8.52
2023-05-26T23:40:28.698Z,8.47
2023-05-26T23:43:02.762Z,8.41
2023-05-26T23:45:32.375Z,8.34
2023-05-26T23:48:05.835Z,8.31
2023-05-26T23:50:35.495Z,8.26
2023-05-26T23:53:06.226Z,8.27
2023-05-26T23:55:36.260Z,8.22
2023-05-26T23:58:08.653Z,8.10
